sensor_id;sensor_type;location;lat;lon;timestamp;temperature;humidity
28761;DHT22;15917;50.014;8.352;2022-10-19T00:01:06;14.80;99.90
28761;DHT22;15917;50.014;8.352;2022-10-19T00:03:33;14.80;99.90
28761;DHT22;15917;50.014;8.352;2022-10-19T00:05:59;14.80;99.90
28761;DHT22;15917;50.014;8.352;2022-10-19T00:08:26;14.80;99.90
28761;DHT22;15917;50.014;8.352;2022-10-19T00:10:51;14.70;99.90
28761;DHT22;15917;50.014;8.352;2022-10-19T00:13:17;14.80;99.90
28761;DHT22;15917;50.014;8.352;2022-10-19T00:15:42;14.70;99.90
28761;DHT22;15917;50.014;8.352;2022-10-19T00:18:09;14.70;99.90
28761;DHT22;15917;50.014;8.352;2022-10-19T00:20:36;14.70;99.90
28761;DHT22;15917;50.014;8.352;2022-10-19T00:23:02;14.60;99.90
28761;DHT22;15917;50.014;8.352;2022-10-19T00:25:28;14.60;99.90
28761;DHT22;15917;50.014;8.352;2022-10-19T00:27:53;14.60;99.90
28761;DHT22;15917;50.014;8.352;2022-10-19T00:30:19;14.50;99.90
28761;DHT22;15917;50.014;8.352;2022-10-19T00:32:44;14.50;99.90
28761;DHT22;15917;50.014;8.352;2022-10-19T00:35:10;14.50;99.90
28761;DHT22;15917;50.014;8.352;2022-10-19T00:37:35;14.40;99.90
28761;DHT22;15917;50.014;8.352;2022-10-19T00:40:02;14.50;99.90
28761;DHT22;15917;50.014;8.352;2022-10-19T00:42:27;14.40;99.90
28761;DHT22;15917;50.014;8.352;2022-10-19T00:44:59;14.50;99.90
28761;DHT22;15917;50.014;8.352;2022-10-19T00:47:24;14.50;99.90
28761;DHT22;15917;50.014;8.352;2022-10-19T00:49:50;14.50;99.90
28761;DHT22;15917;50.014;8.352;2022-10-19T00:52:20;14.40;99.90
28761;DHT22;15917;50.014;8.352;2022-10-19T00:54:47;14.40;99.90
28761;DHT22;15917;50.014;8.352;2022-10-19T00:57:14;14.40;99.90
28761;DHT22;15917;50.014;8.352;2022-10-19T00:59:42;14.40;99.90
28761;DHT22;15917;50.014;8.352;2022-10-19T01:02:09;14.40;99.90
28761;DHT22;15917;50.014;8.352;2022-10-19T01:04:37;14.40;99.90
28761;DHT22;15917;50.014;8.352;2022-10-19T01:07:05;14.40;99.90
28761;DHT22;15917;50.014;8.352;2022-10-19T01:09:32;14.30;99.90
28761;DHT22;15917;50.014;8.352;2022-10-19T01:12:35;14.30;99.90
28761;DHT22;15917;50.014;8.352;2022-10-19T01:15:22;14.30;99.90
28761;DHT22;15917;50.014;8.352;2022-10-19T01:21:02;14.30;99.90
28761;DHT22;15917;50.014;8.352;2022-10-19T01:27:05;14.30;99.90
28761;DHT22;15917;50.014;8.352;2022-10-19T01:29:53;14.30;99.90
28761;DHT22;15917;50.014;8.352;2022-10-19T01:37:49;14.30;99.90
28761;DHT22;15917;50.014;8.352;2022-10-19T01:40:27;14.20;99.90
28761;DHT22;15917;50.014;8.352;2022-10-19T01:43:03;14.20;99.90
28761;DHT22;15917;50.014;8.352;2022-10-19T01:45:35;14.20;99.90
28761;DHT22;15917;50.014;8.352;2022-10-19T01:48:36;14.20;99.90
28761;DHT22;15917;50.014;8.352;2022-10-19T01:51:20;14.20;99.90
28761;DHT22;15917;50.014;8.352;2022-10-19T01:53:50;14.20;99.90
28761;DHT22;15917;50.014;8.352;2022-10-19T01:56:19;14.20;99.90
28761;DHT22;15917;50.014;8.352;2022-10-19T01:58:46;14.20;99.90
28761;DHT22;15917;50.014;8.352;2022-10-19T02:01:16;14.20;99.90
28761;DHT22;15917;50.014;8.352;2022-10-19T02:03:47;14.20;99.90
28761;DHT22;15917;50.014;8.352;2022-10-19T02:06:13;14.20;99.90
28761;DHT22;15917;50.014;8.352;2022-10-19T02:08:43;14.10;99.90
28761;DHT22;15917;50.014;8.352;2022-10-19T02:11:09;14.10;99.90
28761;DHT22;15917;50.014;8.352;2022-10-19T02:13:36;14.10;99.90
28761;DHT22;15917;50.014;8.352;2022-10-19T02:16:05;14.10;99.90
28761;DHT22;15917;50.014;8.352;2022-10-19T02:18:38;14.10;99.90
28761;DHT22;15917;50.014;8.352;2022-10-19T02:21:06;14.10;99.90
28761;DHT22;15917;50.014;8.352;2022-10-19T02:23:32;14.10;99.90
28761;DHT22;15917;50.014;8.352;2022-10-19T02:25:58;14.10;99.90
28761;DHT22;15917;50.014;8.352;2022-10-19T02:28:25;14.10;99.90
28761;DHT22;15917;50.014;8.352;2022-10-19T02:30:52;14.10;99.90
28761;DHT22;15917;50.014;8.352;2022-10-19T02:33:18;14.00;99.90
28761;DHT22;15917;50.014;8.352;2022-10-19T02:35:44;14.10;99.90
28761;DHT22;15917;50.014;8.352;2022-10-19T02:38:12;14.10;99.90
28761;DHT22;15917;50.014;8.352;2022-10-19T02:40:42;14.00;99.90
28761;DHT22;15917;50.014;8.352;2022-10-19T02:43:13;14.00;99.90
28761;DHT22;15917;50.014;8.352;2022-10-19T02:45:46;14.00;99.90
28761;DHT22;15917;50.014;8.352;2022-10-19T02:48:18;14.00;99.90
28761;DHT22;15917;50.014;8.352;2022-10-19T02:50:44;14.10;99.90
28761;DHT22;15917;50.014;8.352;2022-10-19T02:53:12;14.00;99.90
28761;DHT22;15917;50.014;8.352;2022-10-19T02:55:38;14.00;99.90
28761;DHT22;15917;50.014;8.352;2022-10-19T02:58:04;14.00;99.90
28761;DHT22;15917;50.014;8.352;2022-10-19T03:00:29;14.00;99.90
28761;DHT22;15917;50.014;8.352;2022-10-19T03:02:55;14.00;99.90
28761;DHT22;15917;50.014;8.352;2022-10-19T03:05:20;14.00;99.90
28761;DHT22;15917;50.014;8.352;2022-10-19T03:07:46;14.00;99.90
28761;DHT22;15917;50.014;8.352;2022-10-19T03:10:11;14.00;99.90
28761;DHT22;15917;50.014;8.352;2022-10-19T03:12:37;14.00;99.90
28761;DHT22;15917;50.014;8.352;2022-10-19T03:15:03;14.00;99.90
28761;DHT22;15917;50.014;8.352;2022-10-19T03:17:29;14.00;99.90
28761;DHT22;15917;50.014;8.352;2022-10-19T03:19:55;14.00;99.90
28761;DHT22;15917;50.014;8.352;2022-10-19T03:22:20;14.00;99.90
28761;DHT22;15917;50.014;8.352;2022-10-19T03:24:46;14.00;99.90
28761;DHT22;15917;50.014;8.352;2022-10-19T03:27:11;14.10;99.90
28761;DHT22;15917;50.014;8.352;2022-10-19T03:29:37;14.10;99.90
28761;DHT22;15917;50.014;8.352;2022-10-19T03:32:03;14.00;99.90
28761;DHT22;15917;50.014;8.352;2022-10-19T03:34:28;13.90;99.90
28761;DHT22;15917;50.014;8.352;2022-10-19T03:36:54;13.90;99.90
28761;DHT22;15917;50.014;8.352;2022-10-19T03:39:21;13.80;99.90
28761;DHT22;15917;50.014;8.352;2022-10-19T03:41:46;13.80;99.90
28761;DHT22;15917;50.014;8.352;2022-10-19T03:44:12;13.80;99.90
28761;DHT22;15917;50.014;8.352;2022-10-19T03:46:38;13.80;99.90
28761;DHT22;15917;50.014;8.352;2022-10-19T03:49:04;13.90;99.90
28761;DHT22;15917;50.014;8.352;2022-10-19T03:51:30;13.90;99.90
28761;DHT22;15917;50.014;8.352;2022-10-19T03:54:02;14.00;99.90
28761;DHT22;15917;50.014;8.352;2022-10-19T03:56:29;13.90;99.90
28761;DHT22;15917;50.014;8.352;2022-10-19T03:58:57;14.00;99.90
28761;DHT22;15917;50.014;8.352;2022-10-19T04:01:25;14.00;99.90
28761;DHT22;15917;50.014;8.352;2022-10-19T04:03:55;14.00;99.90
28761;DHT22;15917;50.014;8.352;2022-10-19T04:06:28;14.10;99.90
28761;DHT22;15917;50.014;8.352;2022-10-19T04:08:54;14.00;99.90
28761;DHT22;15917;50.014;8.352;2022-10-19T04:11:22;14.00;99.90
28761;DHT22;15917;50.014;8.352;2022-10-19T04:13:52;14.00;99.90
28761;DHT22;15917;50.014;8.352;2022-10-19T04:16:19;14.00;99.90
28761;DHT22;15917;50.014;8.352;2022-10-19T04:18:45;13.90;99.90
28761;DHT22;15917;50.014;8.352;2022-10-19T04:21:32;13.90;99.90
28761;DHT22;15917;50.014;8.352;2022-10-19T04:24:10;13.90;99.90
28761;DHT22;15917;50.014;8.352;2022-10-19T04:26:44;13.80;99.90
28761;DHT22;15917;50.014;8.352;2022-10-19T04:29:10;13.70;99.90
28761;DHT22;15917;50.014;8.352;2022-10-19T04:31:36;13.70;99.90
28761;DHT22;15917;50.014;8.352;2022-10-19T04:34:03;13.70;99.90
28761;DHT22;15917;50.014;8.352;2022-10-19T04:36:28;13.80;99.90
28761;DHT22;15917;50.014;8.352;2022-10-19T04:38:54;13.80;99.90
28761;DHT22;15917;50.014;8.352;2022-10-19T04:41:20;13.90;99.90
28761;DHT22;15917;50.014;8.352;2022-10-19T04:43:47;13.90;99.90
28761;DHT22;15917;50.014;8.352;2022-10-19T04:46:18;13.80;99.90
28761;DHT22;15917;50.014;8.352;2022-10-19T04:48:45;13.80;99.90
28761;DHT22;15917;50.014;8.352;2022-10-19T04:51:11;13.70;99.90
28761;DHT22;15917;50.014;8.352;2022-10-19T04:53:39;13.70;99.90
28761;DHT22;15917;50.014;8.352;2022-10-19T04:56:13;13.70;99.90
28761;DHT22;15917;50.014;8.352;2022-10-19T04:58:39;13.70;99.90
28761;DHT22;15917;50.014;8.352;2022-10-19T05:01:17;13.70;99.90
28761;DHT22;15917;50.014;8.352;2022-10-19T05:03:43;13.60;99.90
28761;DHT22;15917;50.014;8.352;2022-10-19T05:06:09;13.60;99.90
28761;DHT22;15917;50.014;8.352;2022-10-19T05:08:36;13.60;99.90
28761;DHT22;15917;50.014;8.352;2022-10-19T05:11:03;13.60;99.90
28761;DHT22;15917;50.014;8.352;2022-10-19T05:13:30;13.60;99.90
28761;DHT22;15917;50.014;8.352;2022-10-19T05:16:01;13.60;99.90
28761;DHT22;15917;50.014;8.352;2022-10-19T05:18:27;13.60;99.90
28761;DHT22;15917;50.014;8.352;2022-10-19T05:21:19;13.60;99.90
28761;DHT22;15917;50.014;8.352;2022-10-19T05:23:50;13.60;99.90
28761;DHT22;15917;50.014;8.352;2022-10-19T05:26:18;13.60;99.90
28761;DHT22;15917;50.014;8.352;2022-10-19T05:28:48;13.60;99.90
28761;DHT22;15917;50.014;8.352;2022-10-19T05:31:17;13.60;99.90
28761;DHT22;15917;50.014;8.352;2022-10-19T05:33:43;13.60;99.90
28761;DHT22;15917;50.014;8.352;2022-10-19T05:36:16;13.60;99.90
28761;DHT22;15917;50.014;8.352;2022-10-19T05:38:43;13.50;99.90
28761;DHT22;15917;50.014;8.352;2022-10-19T05:41:09;13.50;99.90
28761;DHT22;15917;50.014;8.352;2022-10-19T05:43:35;13.40;99.90
28761;DHT22;15917;50.014;8.352;2022-10-19T05:46:05;13.40;99.90
28761;DHT22;15917;50.014;8.352;2022-10-19T05:48:31;13.40;99.90
28761;DHT22;15917;50.014;8.352;2022-10-19T05:51:00;13.90;99.90
28761;DHT22;15917;50.014;8.352;2022-10-19T05:53:28;14.40;99.90
28761;DHT22;15917;50.014;8.352;2022-10-19T05:55:54;14.80;99.90
28761;DHT22;15917;50.014;8.352;2022-10-19T05:58:19;15.10;99.90
28761;DHT22;15917;50.014;8.352;2022-10-19T06:00:53;15.40;99.90
28761;DHT22;15917;50.014;8.352;2022-10-19T06:03:19;15.10;99.90
28761;DHT22;15917;50.014;8.352;2022-10-19T06:05:44;14.60;99.90
28761;DHT22;15917;50.014;8.352;2022-10-19T06:08:10;14.30;99.90
28761;DHT22;15917;50.014;8.352;2022-10-19T06:10:36;14.00;99.90
28761;DHT22;15917;50.014;8.352;2022-10-19T06:13:01;13.70;99.90
28761;DHT22;15917;50.014;8.352;2022-10-19T06:15:27;13.60;99.90
28761;DHT22;15917;50.014;8.352;2022-10-19T06:17:52;13.50;99.90
28761;DHT22;15917;50.014;8.352;2022-10-19T06:20:18;13.40;99.90
28761;DHT22;15917;50.014;8.352;2022-10-19T06:22:43;13.40;99.90
28761;DHT22;15917;50.014;8.352;2022-10-19T06:25:09;13.40;99.90
28761;DHT22;15917;50.014;8.352;2022-10-19T06:27:34;13.30;99.90
28761;DHT22;15917;50.014;8.352;2022-10-19T06:30:00;13.30;99.90
28761;DHT22;15917;50.014;8.352;2022-10-19T06:32:26;13.30;99.90
28761;DHT22;15917;50.014;8.352;2022-10-19T06:34:52;13.40;99.90
28761;DHT22;15917;50.014;8.352;2022-10-19T06:37:18;13.40;99.90
28761;DHT22;15917;50.014;8.352;2022-10-19T06:39:43;13.40;99.90
28761;DHT22;15917;50.014;8.352;2022-10-19T06:42:09;13.40;99.90
28761;DHT22;15917;50.014;8.352;2022-10-19T06:44:34;13.50;99.90
28761;DHT22;15917;50.014;8.352;2022-10-19T06:47:00;13.40;99.90
28761;DHT22;15917;50.014;8.352;2022-10-19T06:49:26;13.40;99.90
28761;DHT22;15917;50.014;8.352;2022-10-19T06:51:51;13.40;99.90
28761;DHT22;15917;50.014;8.352;2022-10-19T06:54:17;13.50;99.90
28761;DHT22;15917;50.014;8.352;2022-10-19T06:56:42;13.50;99.90
28761;DHT22;15917;50.014;8.352;2022-10-19T06:59:08;13.50;99.90
28761;DHT22;15917;50.014;8.352;2022-10-19T07:01:33;13.50;99.90
28761;DHT22;15917;50.014;8.352;2022-10-19T07:03:59;13.50;99.90
28761;DHT22;15917;50.014;8.352;2022-10-19T07:06:26;13.50;99.90
28761;DHT22;15917;50.014;8.352;2022-10-19T07:08:52;13.50;99.90
28761;DHT22;15917;50.014;8.352;2022-10-19T07:11:19;13.60;99.90
28761;DHT22;15917;50.014;8.352;2022-10-19T07:13:46;13.70;99.90
28761;DHT22;15917;50.014;8.352;2022-10-19T07:16:14;13.70;99.90
28761;DHT22;15917;50.014;8.352;2022-10-19T07:18:40;13.80;99.90
28761;DHT22;15917;50.014;8.352;2022-10-19T07:21:11;14.10;99.90
28761;DHT22;15917;50.014;8.352;2022-10-19T07:23:39;14.40;99.90
28761;DHT22;15917;50.014;8.352;2022-10-19T07:26:08;14.70;99.90
28761;DHT22;15917;50.014;8.352;2022-10-19T07:28:38;15.00;99.90
28761;DHT22;15917;50.014;8.352;2022-10-19T07:31:09;15.20;99.90
28761;DHT22;15917;50.014;8.352;2022-10-19T07:33:35;15.50;99.90
28761;DHT22;15917;50.014;8.352;2022-10-19T07:36:03;15.60;99.90
28761;DHT22;15917;50.014;8.352;2022-10-19T07:38:29;15.80;99.90
28761;DHT22;15917;50.014;8.352;2022-10-19T07:41:04;15.60;99.90
28761;DHT22;15917;50.014;8.352;2022-10-19T07:43:30;15.40;99.90
28761;DHT22;15917;50.014;8.352;2022-10-19T07:46:04;15.30;99.90
28761;DHT22;15917;50.014;8.352;2022-10-19T07:48:30;15.30;99.90
28761;DHT22;15917;50.014;8.352;2022-10-19T07:50:56;15.60;99.90
28761;DHT22;15917;50.014;8.352;2022-10-19T07:53:22;15.80;99.90
28761;DHT22;15917;50.014;8.352;2022-10-19T07:55:47;16.10;99.90
28761;DHT22;15917;50.014;8.352;2022-10-19T07:58:13;16.40;99.90
28761;DHT22;15917;50.014;8.352;2022-10-19T08:00:39;16.60;99.90
28761;DHT22;15917;50.014;8.352;2022-10-19T08:03:04;16.90;99.90
28761;DHT22;15917;50.014;8.352;2022-10-19T08:05:33;16.90;99.90
28761;DHT22;15917;50.014;8.352;2022-10-19T08:07:59;17.00;99.90
28761;DHT22;15917;50.014;8.352;2022-10-19T08:10:25;17.10;99.90
28761;DHT22;15917;50.014;8.352;2022-10-19T08:12:50;17.20;99.90
28761;DHT22;15917;50.014;8.352;2022-10-19T08:15:16;17.30;99.90
28761;DHT22;15917;50.014;8.352;2022-10-19T08:17:41;17.50;99.90
28761;DHT22;15917;50.014;8.352;2022-10-19T08:20:07;17.60;99.90
28761;DHT22;15917;50.014;8.352;2022-10-19T08:22:33;17.70;99.90
28761;DHT22;15917;50.014;8.352;2022-10-19T08:24:59;17.90;99.90
28761;DHT22;15917;50.014;8.352;2022-10-19T08:27:25;17.90;99.90
28761;DHT22;15917;50.014;8.352;2022-10-19T08:29:51;18.10;99.90
28761;DHT22;15917;50.014;8.352;2022-10-19T08:32:17;18.30;99.90
28761;DHT22;15917;50.014;8.352;2022-10-19T08:34:43;18.50;99.90
28761;DHT22;15917;50.014;8.352;2022-10-19T08:37:09;18.50;99.90
28761;DHT22;15917;50.014;8.352;2022-10-19T08:39:35;18.80;99.90
28761;DHT22;15917;50.014;8.352;2022-10-19T08:42:13;18.80;99.90
28761;DHT22;15917;50.014;8.352;2022-10-19T08:45:04;18.90;99.90
28761;DHT22;15917;50.014;8.352;2022-10-19T08:50:20;18.90;99.90
28761;DHT22;15917;50.014;8.352;2022-10-19T08:52:52;18.90;99.90
28761;DHT22;15917;50.014;8.352;2022-10-19T08:55:25;19.00;99.90
28761;DHT22;15917;50.014;8.352;2022-10-19T08:58:06;19.10;99.90
28761;DHT22;15917;50.014;8.352;2022-10-19T09:00:50;19.30;99.90
28761;DHT22;15917;50.014;8.352;2022-10-19T09:03:34;19.50;99.90
28761;DHT22;15917;50.014;8.352;2022-10-19T09:08:50;19.70;99.90
28761;DHT22;15917;50.014;8.352;2022-10-19T09:11:22;19.60;99.90
28761;DHT22;15917;50.014;8.352;2022-10-19T09:14:14;19.50;99.90
28761;DHT22;15917;50.014;8.352;2022-10-19T09:16:41;19.60;99.90
28761;DHT22;15917;50.014;8.352;2022-10-19T09:19:23;19.70;99.90
28761;DHT22;15917;50.014;8.352;2022-10-19T09:21:56;20.20;99.90
28761;DHT22;15917;50.014;8.352;2022-10-19T09:24:38;20.40;99.90
28761;DHT22;15917;50.014;8.352;2022-10-19T09:27:15;20.80;99.90
28761;DHT22;15917;50.014;8.352;2022-10-19T09:29:56;21.10;99.90
28761;DHT22;15917;50.014;8.352;2022-10-19T09:32:34;21.10;99.90
28761;DHT22;15917;50.014;8.352;2022-10-19T09:35:05;21.00;99.90
28761;DHT22;15917;50.014;8.352;2022-10-19T09:37:43;20.50;99.90
28761;DHT22;15917;50.014;8.352;2022-10-19T09:40:22;20.00;99.90
28761;DHT22;15917;50.014;8.352;2022-10-19T09:42:48;20.00;99.90
28761;DHT22;15917;50.014;8.352;2022-10-19T09:45:37;20.10;99.90
28761;DHT22;15917;50.014;8.352;2022-10-19T09:48:25;19.90;99.90
28761;DHT22;15917;50.014;8.352;2022-10-19T09:50:57;20.00;99.90
28761;DHT22;15917;50.014;8.352;2022-10-19T09:53:23;19.80;99.90
28761;DHT22;15917;50.014;8.352;2022-10-19T09:56:02;19.90;99.90
28761;DHT22;15917;50.014;8.352;2022-10-19T09:58:28;19.90;99.90
28761;DHT22;15917;50.014;8.352;2022-10-19T10:00:55;19.90;99.90
28761;DHT22;15917;50.014;8.352;2022-10-19T10:03:36;19.80;99.90
28761;DHT22;15917;50.014;8.352;2022-10-19T10:06:15;20.10;99.90
28761;DHT22;15917;50.014;8.352;2022-10-19T10:08:50;20.70;99.90
28761;DHT22;15917;50.014;8.352;2022-10-19T10:11:25;21.00;99.90
28761;DHT22;15917;50.014;8.352;2022-10-19T10:13:53;21.20;99.90
28761;DHT22;15917;50.014;8.352;2022-10-19T10:16:23;21.40;99.90
28761;DHT22;15917;50.014;8.352;2022-10-19T10:18:56;21.70;99.90
28761;DHT22;15917;50.014;8.352;2022-10-19T10:21:25;21.80;99.90
28761;DHT22;15917;50.014;8.352;2022-10-19T10:24:05;21.60;99.90
28761;DHT22;15917;50.014;8.352;2022-10-19T10:26:37;21.30;99.90
28761;DHT22;15917;50.014;8.352;2022-10-19T10:29:24;21.30;99.90
28761;DHT22;15917;50.014;8.352;2022-10-19T10:31:54;21.00;99.90
28761;DHT22;15917;50.014;8.352;2022-10-19T10:34:39;21.00;99.90
28761;DHT22;15917;50.014;8.352;2022-10-19T10:37:09;20.70;99.90
28761;DHT22;15917;50.014;8.352;2022-10-19T10:39:42;20.60;99.90
28761;DHT22;15917;50.014;8.352;2022-10-19T10:42:14;20.40;99.90
28761;DHT22;15917;50.014;8.352;2022-10-19T10:44:48;20.50;99.90
28761;DHT22;15917;50.014;8.352;2022-10-19T10:47:17;20.40;99.90
28761;DHT22;15917;50.014;8.352;2022-10-19T10:49:57;20.50;99.90
28761;DHT22;15917;50.014;8.352;2022-10-19T10:52:25;20.50;99.90
28761;DHT22;15917;50.014;8.352;2022-10-19T10:55:16;20.30;99.90
28761;DHT22;15917;50.014;8.352;2022-10-19T10:57:52;20.20;99.90
28761;DHT22;15917;50.014;8.352;2022-10-19T11:00:20;20.20;99.90
28761;DHT22;15917;50.014;8.352;2022-10-19T11:03:03;20.40;99.90
28761;DHT22;15917;50.014;8.352;2022-10-19T11:05:35;20.70;99.90
28761;DHT22;15917;50.014;8.352;2022-10-19T11:08:24;20.90;99.90
28761;DHT22;15917;50.014;8.352;2022-10-19T11:11:10;21.00;99.90
28761;DHT22;15917;50.014;8.352;2022-10-19T11:16:13;20.80;99.90
28761;DHT22;15917;50.014;8.352;2022-10-19T11:18:50;21.00;99.90
28761;DHT22;15917;50.014;8.352;2022-10-19T11:22:22;21.20;99.90
28761;DHT22;15917;50.014;8.352;2022-10-19T11:24:51;21.30;99.90
28761;DHT22;15917;50.014;8.352;2022-10-19T11:27:33;21.50;99.90
28761;DHT22;15917;50.014;8.352;2022-10-19T11:30:13;21.60;99.90
28761;DHT22;15917;50.014;8.352;2022-10-19T11:35:54;21.90;99.90
28761;DHT22;15917;50.014;8.352;2022-10-19T11:38:34;21.70;99.90
28761;DHT22;15917;50.014;8.352;2022-10-19T11:41:33;21.50;99.90
28761;DHT22;15917;50.014;8.352;2022-10-19T11:44:08;21.50;99.90
28761;DHT22;15917;50.014;8.352;2022-10-19T11:46:39;21.40;99.90
28761;DHT22;15917;50.014;8.352;2022-10-19T11:54:53;19.90;99.90
28761;DHT22;15917;50.014;8.352;2022-10-19T11:57:33;19.30;99.90
28761;DHT22;15917;50.014;8.352;2022-10-19T12:08:26;18.20;99.90
28761;DHT22;15917;50.014;8.352;2022-10-19T12:13:55;17.90;99.90
28761;DHT22;15917;50.014;8.352;2022-10-19T12:16:30;17.80;99.90
28761;DHT22;15917;50.014;8.352;2022-10-19T12:18:59;17.60;99.90
28761;DHT22;15917;50.014;8.352;2022-10-19T12:21:27;17.50;99.90
28761;DHT22;15917;50.014;8.352;2022-10-19T12:23:54;17.60;99.90
28761;DHT22;15917;50.014;8.352;2022-10-19T12:26:21;17.60;99.90
28761;DHT22;15917;50.014;8.352;2022-10-19T12:29:00;17.70;99.90
28761;DHT22;15917;50.014;8.352;2022-10-19T12:31:28;17.80;99.90
28761;DHT22;15917;50.014;8.352;2022-10-19T12:36:59;18.00;99.90
28761;DHT22;15917;50.014;8.352;2022-10-19T12:42:30;18.30;99.90
28761;DHT22;15917;50.014;8.352;2022-10-19T12:45:28;18.40;99.90
28761;DHT22;15917;50.014;8.352;2022-10-19T12:53:36;18.20;99.90
28761;DHT22;15917;50.014;8.352;2022-10-19T13:01:07;17.60;99.90
28761;DHT22;15917;50.014;8.352;2022-10-19T13:03:39;17.50;99.90
28761;DHT22;15917;50.014;8.352;2022-10-19T13:11:20;17.20;99.90
28761;DHT22;15917;50.014;8.352;2022-10-19T13:14:04;17.40;99.90
28761;DHT22;15917;50.014;8.352;2022-10-19T13:16:31;17.50;99.90
28761;DHT22;15917;50.014;8.352;2022-10-19T13:27:24;17.60;99.90
28761;DHT22;15917;50.014;8.352;2022-10-19T13:29:50;17.50;99.90
28761;DHT22;15917;50.014;8.352;2022-10-19T13:32:36;17.40;99.90
28761;DHT22;15917;50.014;8.352;2022-10-19T13:35:32;17.20;99.90
28761;DHT22;15917;50.014;8.352;2022-10-19T13:41:08;17.10;99.90
28761;DHT22;15917;50.014;8.352;2022-10-19T13:51:50;17.00;99.90
28761;DHT22;15917;50.014;8.352;2022-10-19T14:00:04;16.90;99.90
28761;DHT22;15917;50.014;8.352;2022-10-19T14:08:58;16.80;99.90
28761;DHT22;15917;50.014;8.352;2022-10-19T14:11:42;16.70;99.90
28761;DHT22;15917;50.014;8.352;2022-10-19T14:16:57;16.70;99.90
28761;DHT22;15917;50.014;8.352;2022-10-19T14:21:56;16.60;99.90
28761;DHT22;15917;50.014;8.352;2022-10-19T14:24:28;16.60;99.90
28761;DHT22;15917;50.014;8.352;2022-10-19T14:26:55;16.60;99.90
28761;DHT22;15917;50.014;8.352;2022-10-19T14:29:20;16.60;99.90
28761;DHT22;15917;50.014;8.352;2022-10-19T14:31:46;16.50;99.90
28761;DHT22;15917;50.014;8.352;2022-10-19T14:34:12;16.50;99.90
28761;DHT22;15917;50.014;8.352;2022-10-19T14:36:43;16.60;99.90
28761;DHT22;15917;50.014;8.352;2022-10-19T14:39:31;16.60;99.90
28761;DHT22;15917;50.014;8.352;2022-10-19T14:42:02;16.60;99.90
28761;DHT22;15917;50.014;8.352;2022-10-19T14:44:36;16.50;99.90
28761;DHT22;15917;50.014;8.352;2022-10-19T14:47:23;16.50;99.90
28761;DHT22;15917;50.014;8.352;2022-10-19T14:49:51;16.40;99.90
28761;DHT22;15917;50.014;8.352;2022-10-19T14:52:35;16.40;99.90
28761;DHT22;15917;50.014;8.352;2022-10-19T14:55:09;16.40;99.90
28761;DHT22;15917;50.014;8.352;2022-10-19T14:57:38;16.40;99.90
28761;DHT22;15917;50.014;8.352;2022-10-19T15:00:06;16.40;99.90
28761;DHT22;15917;50.014;8.352;2022-10-19T15:02:48;16.40;99.90
28761;DHT22;15917;50.014;8.352;2022-10-19T15:05:26;16.40;99.90
28761;DHT22;15917;50.014;8.352;2022-10-19T15:07:53;16.40;99.90
28761;DHT22;15917;50.014;8.352;2022-10-19T15:10:25;16.30;99.90
28761;DHT22;15917;50.014;8.352;2022-10-19T15:12:57;16.30;99.90
28761;DHT22;15917;50.014;8.352;2022-10-19T15:15:30;16.10;99.90
28761;DHT22;15917;50.014;8.352;2022-10-19T15:20:30;16.00;99.90
28761;DHT22;15917;50.014;8.352;2022-10-19T15:22:57;15.90;99.90
28761;DHT22;15917;50.014;8.352;2022-10-19T15:27:51;16.00;99.90
28761;DHT22;15917;50.014;8.352;2022-10-19T15:35:38;15.80;99.90
28761;DHT22;15917;50.014;8.352;2022-10-19T15:38:17;15.80;99.90
28761;DHT22;15917;50.014;8.352;2022-10-19T15:40:45;15.90;99.90
28761;DHT22;15917;50.014;8.352;2022-10-19T15:53:59;15.80;99.90
28761;DHT22;15917;50.014;8.352;2022-10-19T15:56:27;15.70;99.90
28761;DHT22;15917;50.014;8.352;2022-10-19T15:58:54;15.70;99.90
28761;DHT22;15917;50.014;8.352;2022-10-19T16:01:25;15.70;99.90
28761;DHT22;15917;50.014;8.352;2022-10-19T16:03:52;15.60;99.90
28761;DHT22;15917;50.014;8.352;2022-10-19T16:06:19;15.50;99.90
28761;DHT22;15917;50.014;8.352;2022-10-19T16:08:45;15.30;99.90
28761;DHT22;15917;50.014;8.352;2022-10-19T16:11:15;15.30;99.90
28761;DHT22;15917;50.014;8.352;2022-10-19T16:13:41;15.30;99.90
28761;DHT22;15917;50.014;8.352;2022-10-19T16:16:11;15.20;99.90
28761;DHT22;15917;50.014;8.352;2022-10-19T16:18:37;15.20;99.90
28761;DHT22;15917;50.014;8.352;2022-10-19T16:21:03;15.20;99.90
28761;DHT22;15917;50.014;8.352;2022-10-19T16:23:29;15.20;99.90
28761;DHT22;15917;50.014;8.352;2022-10-19T16:25:56;15.20;99.90
28761;DHT22;15917;50.014;8.352;2022-10-19T16:28:22;15.20;99.90
28761;DHT22;15917;50.014;8.352;2022-10-19T16:30:51;15.20;99.90
28761;DHT22;15917;50.014;8.352;2022-10-19T16:33:17;15.10;99.90
28761;DHT22;15917;50.014;8.352;2022-10-19T16:35:43;15.10;99.90
28761;DHT22;15917;50.014;8.352;2022-10-19T16:38:08;15.00;99.90
28761;DHT22;15917;50.014;8.352;2022-10-19T16:40:34;15.00;99.90
28761;DHT22;15917;50.014;8.352;2022-10-19T16:42:59;15.00;99.90
28761;DHT22;15917;50.014;8.352;2022-10-19T16:45:29;14.90;99.90
28761;DHT22;15917;50.014;8.352;2022-10-19T16:47:55;14.90;99.90
28761;DHT22;15917;50.014;8.352;2022-10-19T16:50:21;14.80;99.90
28761;DHT22;15917;50.014;8.352;2022-10-19T16:52:46;14.80;99.90
28761;DHT22;15917;50.014;8.352;2022-10-19T16:55:12;14.70;99.90
28761;DHT22;15917;50.014;8.352;2022-10-19T16:57:38;14.70;99.90
28761;DHT22;15917;50.014;8.352;2022-10-19T17:00:05;14.70;99.90
28761;DHT22;15917;50.014;8.352;2022-10-19T17:02:31;14.60;99.90
28761;DHT22;15917;50.014;8.352;2022-10-19T17:04:57;14.60;99.90
28761;DHT22;15917;50.014;8.352;2022-10-19T17:07:23;14.60;99.90
28761;DHT22;15917;50.014;8.352;2022-10-19T17:09:49;14.50;99.90
28761;DHT22;15917;50.014;8.352;2022-10-19T17:12:14;14.50;99.90
28761;DHT22;15917;50.014;8.352;2022-10-19T17:14:41;14.50;99.90
28761;DHT22;15917;50.014;8.352;2022-10-19T17:17:07;14.50;99.90
28761;DHT22;15917;50.014;8.352;2022-10-19T17:19:35;14.50;99.90
28761;DHT22;15917;50.014;8.352;2022-10-19T17:22:00;14.40;99.90
28761;DHT22;15917;50.014;8.352;2022-10-19T17:24:27;14.40;99.90
28761;DHT22;15917;50.014;8.352;2022-10-19T17:26:53;14.40;99.90
28761;DHT22;15917;50.014;8.352;2022-10-19T17:29:20;14.40;99.90
28761;DHT22;15917;50.014;8.352;2022-10-19T17:31:47;14.30;99.90
28761;DHT22;15917;50.014;8.352;2022-10-19T17:34:13;14.30;99.90
28761;DHT22;15917;50.014;8.352;2022-10-19T17:36:40;14.30;99.90
28761;DHT22;15917;50.014;8.352;2022-10-19T17:39:14;14.30;99.90
28761;DHT22;15917;50.014;8.352;2022-10-19T17:41:42;14.30;99.90
28761;DHT22;15917;50.014;8.352;2022-10-19T17:44:09;14.30;99.90
28761;DHT22;15917;50.014;8.352;2022-10-19T17:46:34;14.30;99.90
28761;DHT22;15917;50.014;8.352;2022-10-19T17:49:00;14.20;99.90